Flight Track Log - Related Links

Times and Time Zones

All times are in EDT time to prevent confusion due to time zone crossing. See the SWA1008 flight status page for this flight to view local times or setup timezone preferences in your user account.

Time Position Orientation Groundspeed Altitude Reporting Facility
EDT Latitude Longitude Course Direction KTS MPH feet Rate Location/Type
Thu 10:40:14 AM 39.8333 -104.7667 255° West 204 235 6,800  Level Denver TRACON
Thu 10:41:14 AM 39.8167 -104.8500 255° West 278 320 8,400 2,257 Climbing Denver TRACON
Thu 10:42:03 AM 39.7836 -104.9378 244° Southwest 285 328 10,900 2,811 Climbing Denver Center
Thu 10:43:05 AM 39.7456 -105.0514 246° West 344 396 13,600 3,000 Climbing Denver Center
Thu 10:44:07 AM 39.7028 -105.1792 247° West 358 412 17,100 3,000 Climbing Denver Center
Thu 10:45:09 AM 39.6600 -105.3047 246° West 380 437 19,800 2,758 Climbing Denver Center
Thu 10:46:11 AM 39.6117 -105.4456 246° West 397 457 22,800 2,081 Climbing Denver Center
Thu 10:47:13 AM 39.5664 -105.5761 246° West 402 463 24,100 1,645 Climbing Denver Center
Thu 10:48:15 AM 39.5250 -105.7108 248° West 408 470 26,200 1,984 Climbing Denver Center
Thu 10:49:17 AM 39.4858 -105.8575 251° West 406 467 28,200 1,887 Climbing Denver Center
Thu 10:50:19 AM 39.4447 -106.0019 250° West 422 486 30,100 2,081 Climbing Denver Center
Thu 10:51:21 AM 39.4053 -106.1456 250° West 423 487 32,500 1,887 Climbing Denver Center
Thu 10:52:23 AM 39.3622 -106.2972 250° West 411 473 34,000 726 Climbing Denver Center
Thu 10:53:25 AM 39.3244 -106.4308 250° West 412 474 34,000  Level Denver Center
Thu 10:54:27 AM 39.2806 -106.5853 250° West 412 474 34,000 339 Level Denver Center
Thu 10:55:29 AM 39.2408 -106.7183 249° West 414 476 34,700 1,104 Climbing Denver Center
Thu 10:56:32 AM 39.1597 -106.8483 231° Southwest 414 476 36,300 1,296 Climbing Denver Center
Thu 10:57:34 AM 39.0872 -106.9606 230° Southwest 421 484 37,400 829 Climbing Denver Center
Thu 10:58:35 AM 39.0283 -107.0525 231° Southwest 419 482 38,000 290 Climbing Denver Center
Thu 10:59:38 AM 38.9322 -107.2006 230° Southwest 421 484 38,000  Level Denver Center
Thu 11:00:40 AM 38.8497 -107.3289 230° Southwest 416 479 38,000  Level Denver Center
Thu 11:01:42 AM 38.7786 -107.4394 230° Southwest 419 482 38,000  Level Denver Center
Thu 11:02:44 AM 38.7081 -107.5772 237° Southwest 416 479 38,000  Level Denver Center
Thu 11:03:46 AM 38.6503 -107.6989 239° Southwest 416 479 38,000  Level Denver Center
Thu 11:04:48 AM 38.5936 -107.8183 239° Southwest 412 474 38,000  Level Denver Center
Thu 11:05:50 AM 38.5264 -107.9586 239° Southwest 413 475 38,000  Level Denver Center
Thu 11:06:52 AM 38.4703 -108.0778 239° Southwest 409 471 38,000  Level Denver Center
Thu 11:07:54 AM 38.4033 -108.2169 238° Southwest 411 473 38,000  Level Denver Center
Thu 11:08:56 AM 38.3461 -108.3364 239° Southwest 411 473 38,000  Level Denver Center
Thu 11:09:58 AM 38.2792 -108.4742 238° Southwest 410 472 38,000  Level Denver Center
Thu 11:11:00 AM 38.2214 -108.5950 239° Southwest 414 476 38,000  Level Denver Center
Thu 11:12:02 AM 38.1533 -108.7342 238° Southwest 414 476 38,000  Level Denver Center
Thu 11:13:04 AM 38.0961 -108.8522 238° Southwest 412 474 38,000  Level Denver Center
Thu 11:14:06 AM 38.0328 -108.9781 237° Southwest 408 470 38,000  Level Denver Center
Thu 11:15:08 AM 37.9658 -109.1133 238° Southwest 405 466 38,000  Level Denver Center
Thu 11:16:10 AM 37.9081 -109.2300 238° Southwest 406 467 38,000  Level Denver Center
Thu 11:17:12 AM 37.8494 -109.3469 238° Southwest 410 472 38,000  Level Denver Center
Thu 11:18:14 AM 37.7825 -109.4822 238° Southwest 408 470 38,000  Level Denver Center
Thu 11:19:16 AM 37.7239 -109.5986 238° Southwest 410 472 38,000  Level Denver Center
Thu 11:20:19 AM 37.6553 -109.7356 238° Southwest 414 476 38,000  Level Denver Center
Thu 11:21:21 AM 37.5958 -109.8542 238° Southwest 418 481 38,000  Level Denver Center
Thu 11:22:23 AM 37.5267 -109.9900 237° Southwest 416 479 38,000  Level Denver Center
Thu 11:23:25 AM 37.4675 -110.1072 238° Southwest 415 478 38,000  Level Denver Center
Thu 11:24:27 AM 37.4019 -110.2361 237° Southwest 412 474 38,000  Level Denver Center
Thu 11:25:29 AM 37.3397 -110.3569 237° Southwest 412 474 38,000  Level Denver Center
Thu 11:26:31 AM 37.2769 -110.4792 237° Southwest 416 479 38,000  Level Denver Center
Thu 11:27:33 AM 37.2022 -110.6253 237° Southwest 414 476 38,000  Level Denver Center
Thu 11:28:35 AM 37.1397 -110.7453 237° Southwest 411 473 38,000  Level Denver Center
Thu 11:29:37 AM 37.0886 -110.8406 236° Southwest 411 473 38,000  Level Denver Center
Thu 11:30:51 AM 37.0139 -110.9853 237° Southwest 412 474 38,000  Level Denver Center
Thu 11:31:54 AM 36.9389 -111.1278 237° Southwest 408 470 38,000  Level Denver Center
Thu 11:32:56 AM 36.8769 -111.2472 237° Southwest 409 471 38,000  Level Denver Center
Thu 11:33:58 AM 36.8022 -111.3906 237° Southwest 410 472 38,000  Level Denver Center
Thu 11:35:00 AM 36.7383 -111.5103 236° Southwest 412 474 38,000  Level Denver Center
Thu 11:36:02 AM 36.6747 -111.6303 237° Southwest 414 476 38,000  Level Denver Center
Thu 11:37:04 AM 36.6214 -111.7575 242° Southwest 414 476 38,000  Level Denver Center
Thu 11:38:05 AM 36.5786 -111.8569 242° Southwest 410 472 38,000  Level Denver Center
Thu 11:38:58 AM 36.5242 -111.9822 242° Southwest 411 473 38,000  Level Los Angeles Center
Thu 11:40:00 AM 36.4583 -112.1314 241° Southwest 411 473 38,000  Level Los Angeles Center
Thu 11:41:02 AM 36.4036 -112.2553 241° Southwest 409 471 38,000  Level Los Angeles Center
Thu 11:42:04 AM 36.3500 -112.3789 242° Southwest 408 470 38,000 -144 Level Los Angeles Center
Thu 11:43:07 AM 36.2939 -112.5039 241° Southwest 413 475 37,700 -576 Descending Los Angeles Center
Thu 11:44:09 AM 36.2389 -112.6272 241° Southwest 411 473 36,800 -823 Descending Los Angeles Center
Thu 11:45:11 AM 36.1831 -112.7519 241° Southwest 414 476 36,000 -387 Descending Los Angeles Center
Thu 11:46:13 AM 36.1167 -112.9014 241° Southwest 415 478 36,000  Level Los Angeles Center
Thu 11:47:15 AM 36.0603 -113.0261 241° Southwest 416 479 36,000  Level Los Angeles Center
Thu 11:48:17 AM 36.0156 -113.1253 241° Southwest 414 476 36,000  Level Los Angeles Center
Thu 11:49:19 AM 35.9536 -113.2633 241° Southwest 415 478 36,000  Level Los Angeles Center
Thu 11:50:21 AM 35.8861 -113.4117 241° Southwest 417 480 36,000  Level Los Angeles Center
Thu 11:51:23 AM 35.8294 -113.5344 240° Southwest 417 480 36,000  Level Los Angeles Center
Thu 11:52:26 AM 35.7756 -113.6525 241° Southwest 417 480 36,000  Level Los Angeles Center
Thu 11:53:28 AM 35.7069 -113.8017 241° Southwest 416 479 36,000  Level Los Angeles Center
Thu 11:54:30 AM 35.6486 -113.9281 240° Southwest 417 480 36,000  Level Los Angeles Center
Thu 11:55:32 AM 35.5928 -114.0497 241° Southwest 413 475 36,000  Level Los Angeles Center
Thu 11:56:34 AM 35.5358 -114.1731 240° Southwest 416 479 36,000  Level Los Angeles Center
Thu 11:57:36 AM 35.4781 -114.2967 240° Southwest 416 479 36,000  Level Los Angeles Center
Thu 11:58:38 AM 35.4211 -114.4172 240° Southwest 411 473 36,000  Level Los Angeles Center
Thu 11:59:40 AM 35.3519 -114.5664 240° Southwest 416 479 36,000  Level Los Angeles Center
Thu 12:00:43 PM 35.2925 -114.6900 240° Southwest 419 482 36,000  Level Los Angeles Center
Thu 12:01:45 PM 35.2344 -114.8117 240° Southwest 415 478 36,000  Level Los Angeles Center
Thu 12:03:00 PM 35.1584 -114.9504 239° Southwest  Level FlightAware Approximate
Thu 12:03:49 PM 35.1181 -115.0556 239° Southwest 416 479 36,000  Level Los Angeles Center
Thu 12:04:51 PM 35.0614 -115.1778 240° Southwest 414 476 36,000  Level Los Angeles Center
Thu 12:05:53 PM 34.9931 -115.3186 239° Southwest 415 478 36,000  Level Los Angeles Center
Thu 12:06:55 PM 34.9336 -115.4411 239° Southwest 418 481 36,000  Level Los Angeles Center
Thu 12:07:57 PM 34.8750 -115.5639 240° Southwest 420 483 36,000  Level Los Angeles Center
Thu 12:09:00 PM 34.8150 -115.6853 239° Southwest 419 482 36,000  Level Los Angeles Center
Thu 12:10:02 PM 34.7556 -115.8086 240° Southwest 422 486 36,000  Level Los Angeles Center
Thu 12:11:04 PM 34.6947 -115.9308 239° Southwest 423 487 36,000 -532 Level Los Angeles Center
Thu 12:12:06 PM 34.6244 -116.0761 240° Southwest 416 479 34,900 -1,016 Descending Los Angeles Center
Thu 12:13:08 PM 34.5639 -116.1975 239° Southwest 419 482 33,900 -919 Descending Los Angeles Center
Thu 12:14:10 PM 34.5033 -116.3194 239° Southwest 421 484 33,000 -919 Descending Los Angeles Center
Thu 12:15:12 PM 34.4425 -116.4422 239° Southwest 424 488 32,000 -1,500 Descending Los Angeles Center
Thu 12:16:14 PM 34.3806 -116.5647 239° Southwest 426 490 29,900 -2,015 Descending Los Angeles Center
Thu 12:17:29 PM 34.3203 -116.6872 239° Southwest 422 486 27,400 -2,584 Descending Los Angeles Center
Thu 12:18:31 PM 34.2386 -116.8483 239° Southwest 401 461 24,000 -2,758 Descending Los Angeles Center
Thu 12:19:33 PM 34.1822 -116.9589 238° Southwest 390 449 21,700 -2,177 Descending Los Angeles Center
Thu 12:20:35 PM 34.1297 -117.0639 239° Southwest 369 425 19,500 -1,892 Descending Los Angeles Center
Thu 12:21:43 PM 34.0667 -117.1833 238° Southwest 339 390 17,600 -1,875 Descending Southern California TRACON
Thu 12:22:43 PM 34.0500 -117.2833 259° West 331 381 15,500 -2,000 Descending Southern California TRACON
Thu 12:23:43 PM 34.0333 -117.4000 260° West 324 373 13,600 -1,600 Descending Southern California TRACON
Thu 12:24:43 PM 34.0167 -117.5000 259° West 300 345 12,300 -1,450 Descending Southern California TRACON
Thu 12:25:43 PM 34.0167 -117.6000 270° West 367 422 10,700 -1,150 Descending Southern California TRACON
Thu 12:26:43 PM 34.0167 -117.7000 270° West 264 304 10,000 -300 Descending Southern California TRACON
Thu 12:27:43 PM 34.0167 -117.7833 270° West 274 315 10,100 -750 Climbing Southern California TRACON
Thu 12:28:43 PM 34.0000 -117.8833 259° West 282 325 8,500 -1,450 Descending Southern California TRACON
Thu 12:29:43 PM 34.0000 -117.9667 270° West 269 310 7,200 -1,300 Descending Southern California TRACON
Thu 12:30:43 PM 33.9833 -118.0500 256° West 233 268 5,900 -1,238 Descending Southern California TRACON
Thu 12:31:49 PM 33.9833 -118.1333 270° West 219 252 4,600 -1,091 Descending Southern California TRACON
Thu 12:32:11 PM 33.9781 -118.1453 242° Southwest 222 255 4,300 -1,071 Descending Los Angeles Center
Thu 12:33:13 PM 33.9708 -118.2222 264° West 198 228 3,100 -1,056 Descending Los Angeles Center
Thu 12:34:16 PM 33.9642 -118.2850 263° West 193 222 2,100 -912 Descending Los Angeles Center
Thu 12:35:18 PM 33.9589 -118.3431 264° West 186 214 1,200 -823 Descending Los Angeles Center
Thu 12:36:20 PM 33.9542 -118.3900 263° West 158 182 400 -774 Descending Los Angeles Center
Thu 12:38:00 PM 33.9333 -118.4000 259° West  Level FlightAware Approximate
Thu 12:45:00 PM 33.9425 -118.4081 259° West  Level Estimated

Login

Don't have an account? Register now (free) for customized features, flight alerts, and more!